sensor_id;sensor_type;location;lat;lon;timestamp;pressure;altitude;pressure_sealevel;temperature;humidity
75045;BME280;63614;56.026;35.960;2024-01-30T00:01:53;100380.75;;;0.74;79.93
75045;BME280;63614;56.026;35.960;2024-01-30T00:04:19;100377.38;;;0.74;79.75
75045;BME280;63614;56.026;35.960;2024-01-30T00:06:45;100386.88;;;0.71;79.75
75045;BME280;63614;56.026;35.960;2024-01-30T00:09:11;100396.31;;;0.71;79.93
75045;BME280;63614;56.026;35.960;2024-01-30T00:11:37;100399.78;;;0.70;79.77
75045;BME280;63614;56.026;35.960;2024-01-30T00:14:04;100390.97;;;0.61;80.18
75045;BME280;63614;56.026;35.960;2024-01-30T00:16:30;100393.44;;;0.63;80.01
75045;BME280;63614;56.026;35.960;2024-01-30T00:18:56;100400.97;;;0.51;80.44
75045;BME280;63614;56.026;35.960;2024-01-30T00:21:23;100395.47;;;0.58;80.28
75045;BME280;63614;56.026;35.960;2024-01-30T00:23:49;100395.22;;;0.48;80.55
75045;BME280;63614;56.026;35.960;2024-01-30T00:26:15;100392.25;;;0.54;80.37
75045;BME280;63614;56.026;35.960;2024-01-30T00:28:41;100398.00;;;0.45;80.34
75045;BME280;63614;56.026;35.960;2024-01-30T00:31:07;100402.38;;;0.43;80.56
75045;BME280;63614;56.026;35.960;2024-01-30T00:33:41;100401.25;;;0.47;80.41
75045;BME280;63614;56.026;35.960;2024-01-30T00:36:08;100406.19;;;0.50;80.24
75045;BME280;63614;56.026;35.960;2024-01-30T00:38:35;100421.13;;;0.43;79.74
75045;BME280;63614;56.026;35.960;2024-01-30T00:41:01;100413.28;;;0.32;80.27
75045;BME280;63614;56.026;35.960;2024-01-30T00:43:30;100416.44;;;0.50;80.32
75045;BME280;63614;56.026;35.960;2024-01-30T00:45:57;100418.25;;;0.48;79.86
75045;BME280;63614;56.026;35.960;2024-01-30T00:48:23;100415.19;;;0.56;80.36
75045;BME280;63614;56.026;35.960;2024-01-30T00:50:49;100415.09;;;0.57;79.85
75045;BME280;63614;56.026;35.960;2024-01-30T00:53:15;100402.72;;;0.64;79.89
75045;BME280;63614;56.026;35.960;2024-01-30T00:55:41;100404.78;;;0.59;79.39
75045;BME280;63614;56.026;35.960;2024-01-30T00:58:07;100409.19;;;0.57;79.92
75045;BME280;63614;56.026;35.960;2024-01-30T01:00:33;100391.38;;;0.68;79.47
75045;BME280;63614;56.026;35.960;2024-01-30T01:02:59;100390.78;;;0.64;79.45
75045;BME280;63614;56.026;35.960;2024-01-30T01:05:25;100382.69;;;0.70;79.51
75045;BME280;63614;56.026;35.960;2024-01-30T01:07:51;100395.41;;;0.72;79.51
75045;BME280;63614;56.026;35.960;2024-01-30T01:10:17;100389.94;;;0.64;79.96
75045;BME280;63614;56.026;35.960;2024-01-30T01:12:45;100402.88;;;0.75;79.63
75045;BME280;63614;56.026;35.960;2024-01-30T01:15:11;100388.00;;;0.67;79.79
75045;BME280;63614;56.026;35.960;2024-01-30T01:17:38;100391.38;;;0.68;79.32
75045;BME280;63614;56.026;35.960;2024-01-30T01:20:05;100381.56;;;0.75;79.58
75045;BME280;63614;56.026;35.960;2024-01-30T01:22:32;100377.59;;;0.83;79.11
75045;BME280;63614;56.026;35.960;2024-01-30T01:25:02;100370.69;;;0.71;79.64
75045;BME280;63614;56.026;35.960;2024-01-30T01:27:30;100371.09;;;0.65;79.82
75045;BME280;63614;56.026;35.960;2024-01-30T01:29:58;100378.81;;;0.78;79.61
75045;BME280;63614;56.026;35.960;2024-01-30T01:32:24;100369.91;;;0.70;79.60
75045;BME280;63614;56.026;35.960;2024-01-30T01:34:49;100383.13;;;0.77;79.91
75045;BME280;63614;56.026;35.960;2024-01-30T01:37:15;100372.38;;;0.85;79.62
75045;BME280;63614;56.026;35.960;2024-01-30T01:39:41;100379.75;;;0.89;79.00
75045;BME280;63614;56.026;35.960;2024-01-30T01:42:07;100387.34;;;0.91;79.12
75045;BME280;63614;56.026;35.960;2024-01-30T01:44:33;100372.78;;;0.92;79.18
75045;BME280;63614;56.026;35.960;2024-01-30T01:46:59;100372.69;;;1.06;78.98
75045;BME280;63614;56.026;35.960;2024-01-30T01:49:25;100366.66;;;1.20;78.41
75045;BME280;63614;56.026;35.960;2024-01-30T01:51:55;100368.88;;;1.12;78.26
75045;BME280;63614;56.026;35.960;2024-01-30T01:54:24;100366.66;;;1.20;78.38
75045;BME280;63614;56.026;35.960;2024-01-30T01:56:52;100362.25;;;1.22;78.09
75045;BME280;63614;56.026;35.960;2024-01-30T01:59:20;100366.75;;;1.18;78.25
75045;BME280;63614;56.026;35.960;2024-01-30T02:01:46;100366.22;;;1.26;78.18
75045;BME280;63614;56.026;35.960;2024-01-30T02:04:15;100355.97;;;1.13;78.29
75045;BME280;63614;56.026;35.960;2024-01-30T02:06:43;100346.47;;;1.02;78.87
75045;BME280;63614;56.026;35.960;2024-01-30T02:09:09;100349.94;;;1.14;78.67
75045;BME280;63614;56.026;35.960;2024-01-30T02:11:35;100353.72;;;1.08;78.67
75045;BME280;63614;56.026;35.960;2024-01-30T02:14:05;100346.88;;;1.09;79.02
75045;BME280;63614;56.026;35.960;2024-01-30T02:16:32;100363.16;;;1.08;78.61
75045;BME280;63614;56.026;35.960;2024-01-30T02:18:58;100362.84;;;1.13;78.70
75045;BME280;63614;56.026;35.960;2024-01-30T02:21:34;100364.91;;;1.20;78.59
75045;BME280;63614;56.026;35.960;2024-01-30T02:24:01;100370.94;;;1.19;78.24
75045;BME280;63614;56.026;35.960;2024-01-30T02:26:29;100374.34;;;1.33;78.42
75045;BME280;63614;56.026;35.960;2024-01-30T02:28:55;100387.16;;;1.33;77.99
75045;BME280;63614;56.026;35.960;2024-01-30T02:31:21;100382.13;;;1.31;77.77
75045;BME280;63614;56.026;35.960;2024-01-30T02:33:47;100387.06;;;1.34;77.71
75045;BME280;63614;56.026;35.960;2024-01-30T02:36:13;100391.75;;;1.40;77.74
75045;BME280;63614;56.026;35.960;2024-01-30T02:38:41;100388.66;;;1.48;77.53
75045;BME280;63614;56.026;35.960;2024-01-30T02:41:07;100386.28;;;1.58;77.16
75045;BME280;63614;56.026;35.960;2024-01-30T02:43:33;100385.38;;;1.59;76.78
75045;BME280;63614;56.026;35.960;2024-01-30T02:45:59;100385.91;;;1.51;76.91
75045;BME280;63614;56.026;35.960;2024-01-30T02:48:26;100397.00;;;1.52;77.27
75045;BME280;63614;56.026;35.960;2024-01-30T02:50:52;100387.84;;;1.48;77.21
75045;BME280;63614;56.026;35.960;2024-01-30T02:53:18;100378.84;;;1.55;77.10
75045;BME280;63614;56.026;35.960;2024-01-30T02:55:44;100374.34;;;1.45;77.33
75045;BME280;63614;56.026;35.960;2024-01-30T02:58:10;100383.84;;;1.43;77.50
75045;BME280;63614;56.026;35.960;2024-01-30T03:00:36;100381.91;;;1.47;77.77
75045;BME280;63614;56.026;35.960;2024-01-30T03:03:02;100399.84;;;1.60;77.46
75045;BME280;63614;56.026;35.960;2024-01-30T03:05:28;100391.03;;;1.51;77.32
75045;BME280;63614;56.026;35.960;2024-01-30T03:07:55;100385.38;;;1.59;77.40
75045;BME280;63614;56.026;35.960;2024-01-30T03:10:21;100405.78;;;1.60;77.29
75045;BME280;63614;56.026;35.960;2024-01-30T03:12:47;100412.78;;;1.58;77.17
75045;BME280;63614;56.026;35.960;2024-01-30T03:15:13;100418.91;;;1.56;77.20
75045;BME280;63614;56.026;35.960;2024-01-30T03:17:38;100412.38;;;1.65;76.98
75045;BME280;63614;56.026;35.960;2024-01-30T03:20:05;100420.06;;;1.52;77.22
75045;BME280;63614;56.026;35.960;2024-01-30T03:22:32;100421.09;;;1.49;77.52
75045;BME280;63614;56.026;35.960;2024-01-30T03:24:58;100418.13;;;1.55;77.55
75045;BME280;63614;56.026;35.960;2024-01-30T03:27:24;100413.59;;;1.59;77.15
75045;BME280;63614;56.026;35.960;2024-01-30T03:29:50;100420.88;;;1.65;76.89
75045;BME280;63614;56.026;35.960;2024-01-30T03:32:15;100425.09;;;1.53;77.54
75045;BME280;63614;56.026;35.960;2024-01-30T03:34:41;100435.97;;;1.57;77.50
75045;BME280;63614;56.026;35.960;2024-01-30T03:37:08;100424.97;;;1.68;77.16
75045;BME280;63614;56.026;35.960;2024-01-30T03:39:33;100412.25;;;1.66;76.96
75045;BME280;63614;56.026;35.960;2024-01-30T03:41:59;100416.06;;;1.60;76.94
75045;BME280;63614;56.026;35.960;2024-01-30T03:44:25;100425.28;;;1.63;76.84
75045;BME280;63614;56.026;35.960;2024-01-30T03:46:51;100422.63;;;1.52;77.33
75045;BME280;63614;56.026;35.960;2024-01-30T03:49:17;100419.13;;;1.53;77.74
75045;BME280;63614;56.026;35.960;2024-01-30T03:51:43;100426.41;;;1.46;77.80
75045;BME280;63614;56.026;35.960;2024-01-30T03:54:09;100433.69;;;1.65;77.33
75045;BME280;63614;56.026;35.960;2024-01-30T03:56:35;100429.06;;;1.57;77.54
75045;BME280;63614;56.026;35.960;2024-01-30T03:59:01;100426.72;;;1.54;77.37
75045;BME280;63614;56.026;35.960;2024-01-30T04:01:28;100422.44;;;1.55;77.61
75045;BME280;63614;56.026;35.960;2024-01-30T04:03:54;100421.09;;;1.49;77.70
75045;BME280;63614;56.026;35.960;2024-01-30T04:06:21;100425.06;;;1.40;77.83
75045;BME280;63614;56.026;35.960;2024-01-30T04:08:47;100435.13;;;1.43;77.94
75045;BME280;63614;56.026;35.960;2024-01-30T04:11:12;100422.84;;;1.36;78.36
75045;BME280;63614;56.026;35.960;2024-01-30T04:13:38;100424.25;;;1.40;78.25
75045;BME280;63614;56.026;35.960;2024-01-30T04:16:04;100426.53;;;1.44;78.28
75045;BME280;63614;56.026;35.960;2024-01-30T04:18:31;100427.88;;;1.50;78.10
75045;BME280;63614;56.026;35.960;2024-01-30T04:20:57;100416.88;;;1.48;78.19
75045;BME280;63614;56.026;35.960;2024-01-30T04:23:23;100410.13;;;1.47;78.08
75045;BME280;63614;56.026;35.960;2024-01-30T04:25:49;100412.19;;;1.55;77.96
75045;BME280;63614;56.026;35.960;2024-01-30T04:28:15;100418.41;;;1.51;77.66
75045;BME280;63614;56.026;35.960;2024-01-30T04:30:41;100424.47;;;1.50;77.89
75045;BME280;63614;56.026;35.960;2024-01-30T04:33:07;100412.78;;;1.45;78.00
75045;BME280;63614;56.026;35.960;2024-01-30T04:35:33;100415.44;;;1.44;78.16
75045;BME280;63614;56.026;35.960;2024-01-30T04:37:59;100415.56;;;1.42;78.45
75045;BME280;63614;56.026;35.960;2024-01-30T04:40:25;100416.97;;;1.47;77.84
75045;BME280;63614;56.026;35.960;2024-01-30T04:42:51;100419.72;;;1.56;77.82
75045;BME280;63614;56.026;35.960;2024-01-30T04:45:16;100421.38;;;1.57;77.62
75045;BME280;63614;56.026;35.960;2024-01-30T04:47:42;100423.63;;;1.62;77.62
75045;BME280;63614;56.026;35.960;2024-01-30T04:50:09;100418.91;;;1.69;77.62
75045;BME280;63614;56.026;35.960;2024-01-30T04:52:36;100420.47;;;1.45;77.76
75045;BME280;63614;56.026;35.960;2024-01-30T04:55:02;100421.69;;;1.53;78.27
75045;BME280;63614;56.026;35.960;2024-01-30T04:57:30;100407.13;;;1.66;77.59
75045;BME280;63614;56.026;35.960;2024-01-30T05:00:00;100400.16;;;1.68;77.35
75045;BME280;63614;56.026;35.960;2024-01-30T05:02:27;100421.66;;;1.78;76.97
75045;BME280;63614;56.026;35.960;2024-01-30T05:04:53;100419.75;;;1.69;77.55
75045;BME280;63614;56.026;35.960;2024-01-30T05:07:19;100417.06;;;1.71;77.38
75045;BME280;63614;56.026;35.960;2024-01-30T05:09:45;100414.72;;;1.68;77.23
75045;BME280;63614;56.026;35.960;2024-01-30T05:12:11;100427.31;;;1.71;77.02
75045;BME280;63614;56.026;35.960;2024-01-30T05:14:37;100430.72;;;1.71;77.23
75045;BME280;63614;56.026;35.960;2024-01-30T05:17:03;100433.09;;;1.61;77.28
75045;BME280;63614;56.026;35.960;2024-01-30T05:19:29;100433.69;;;1.65;77.32
75045;BME280;63614;56.026;35.960;2024-01-30T05:21:55;100428.38;;;1.55;77.65
75045;BME280;63614;56.026;35.960;2024-01-30T05:24:21;100422.09;;;1.59;78.02
75045;BME280;63614;56.026;35.960;2024-01-30T05:26:47;100420.97;;;1.63;77.78
75045;BME280;63614;56.026;35.960;2024-01-30T05:29:14;100421.56;;;1.67;77.83
75045;BME280;63614;56.026;35.960;2024-01-30T05:31:40;100416.13;;;1.72;77.37
75045;BME280;63614;56.026;35.960;2024-01-30T05:34:06;100422.19;;;1.58;77.94
75045;BME280;63614;56.026;35.960;2024-01-30T05:36:32;100427.84;;;1.76;77.26
75045;BME280;63614;56.026;35.960;2024-01-30T05:38:58;100425.47;;;1.86;77.21
75045;BME280;63614;56.026;35.960;2024-01-30T05:41:24;100423.63;;;1.75;77.14
75045;BME280;63614;56.026;35.960;2024-01-30T05:43:50;100435.13;;;1.69;77.11
75045;BME280;63614;56.026;35.960;2024-01-30T05:46:19;100433.69;;;1.65;77.48
75045;BME280;63614;56.026;35.960;2024-01-30T05:48:45;100430.41;;;1.63;77.77
75045;BME280;63614;56.026;35.960;2024-01-30T05:51:11;100434.19;;;1.70;77.66
75045;BME280;63614;56.026;35.960;2024-01-30T05:53:37;100440.13;;;1.71;77.74
75045;BME280;63614;56.026;35.960;2024-01-30T05:56:04;100444.94;;;1.75;77.54
75045;BME280;63614;56.026;35.960;2024-01-30T05:58:30;100442.38;;;1.75;77.14
75045;BME280;63614;56.026;35.960;2024-01-30T06:00:59;100448.97;;;1.67;77.42
75045;BME280;63614;56.026;35.960;2024-01-30T06:03:24;100459.03;;;1.83;77.27
75045;BME280;63614;56.026;35.960;2024-01-30T06:05:50;100451.19;;;1.97;76.76
75045;BME280;63614;56.026;35.960;2024-01-30T06:08:17;100445.03;;;1.87;76.76
75045;BME280;63614;56.026;35.960;2024-01-30T06:10:43;100456.56;;;1.81;77.43
75045;BME280;63614;56.026;35.960;2024-01-30T06:13:09;100454.81;;;1.81;77.19
75045;BME280;63614;56.026;35.960;2024-01-30T06:15:35;100452.97;;;1.84;77.33
75045;BME280;63614;56.026;35.960;2024-01-30T06:18:01;100454.06;;;1.92;76.65
75045;BME280;63614;56.026;35.960;2024-01-30T06:20:26;100453.66;;;1.98;76.83
75045;BME280;63614;56.026;35.960;2024-01-30T06:22:52;100457.97;;;1.98;76.53
75045;BME280;63614;56.026;35.960;2024-01-30T06:25:18;100459.50;;;2.00;76.61
75045;BME280;63614;56.026;35.960;2024-01-30T06:27:44;100456.94;;;1.88;76.96
75045;BME280;63614;56.026;35.960;2024-01-30T06:30:10;100457.44;;;1.93;76.55
75045;BME280;63614;56.026;35.960;2024-01-30T06:32:36;100455.41;;;1.98;76.52
75045;BME280;63614;56.026;35.960;2024-01-30T06:35:03;100451.09;;;1.98;76.61
75045;BME280;63614;56.026;35.960;2024-01-30T06:37:29;100450.19;;;1.99;76.46
75045;BME280;63614;56.026;35.960;2024-01-30T06:39:55;100458.78;;;1.98;76.53
75045;BME280;63614;56.026;35.960;2024-01-30T06:42:21;100454.25;;;2.02;76.17
75045;BME280;63614;56.026;35.960;2024-01-30T06:44:47;100450.06;;;2.01;76.42
75045;BME280;63614;56.026;35.960;2024-01-30T06:47:13;100449.13;;;2.02;76.55
75045;BME280;63614;56.026;35.960;2024-01-30T06:49:39;100455.06;;;2.15;75.83
75045;BME280;63614;56.026;35.960;2024-01-30T06:52:08;100450.56;;;2.06;76.33
75045;BME280;63614;56.026;35.960;2024-01-30T06:54:34;100456.78;;;2.15;76.16
75045;BME280;63614;56.026;35.960;2024-01-30T06:57:00;100458.84;;;2.23;75.59
75045;BME280;63614;56.026;35.960;2024-01-30T06:59:26;100463.97;;;2.23;76.10
75045;BME280;63614;56.026;35.960;2024-01-30T07:01:52;100471.56;;;2.24;75.93
75045;BME280;63614;56.026;35.960;2024-01-30T07:04:18;100461.63;;;2.44;75.32
75045;BME280;63614;56.026;35.960;2024-01-30T07:06:44;100469.81;;;2.49;75.11
75045;BME280;63614;56.026;35.960;2024-01-30T07:09:10;100475.84;;;2.36;75.13
75045;BME280;63614;56.026;35.960;2024-01-30T07:11:36;100483.28;;;2.28;75.53
75045;BME280;63614;56.026;35.960;2024-01-30T07:14:02;100485.28;;;2.36;75.09
75045;BME280;63614;56.026;35.960;2024-01-30T07:16:30;100485.06;;;2.39;75.28
75045;BME280;63614;56.026;35.960;2024-01-30T07:18:56;100491.63;;;2.43;75.04
75045;BME280;63614;56.026;35.960;2024-01-30T07:21:22;100506.03;;;2.33;75.29
75045;BME280;63614;56.026;35.960;2024-01-30T07:23:56;100491.38;;;2.22;75.44
75045;BME280;63614;56.026;35.960;2024-01-30T07:26:22;100499.69;;;2.26;75.73
75045;BME280;63614;56.026;35.960;2024-01-30T07:28:48;100495.75;;;2.33;75.82
75045;BME280;63614;56.026;35.960;2024-01-30T07:31:15;100499.69;;;2.26;75.52
75045;BME280;63614;56.026;35.960;2024-01-30T07:33:41;100498.63;;;2.41;75.12
75045;BME280;63614;56.026;35.960;2024-01-30T07:36:07;100496.28;;;2.38;75.34
75045;BME280;63614;56.026;35.960;2024-01-30T07:38:34;100502.13;;;2.40;75.11
75045;BME280;63614;56.026;35.960;2024-01-30T07:41:00;100505.41;;;2.42;75.08
75045;BME280;63614;56.026;35.960;2024-01-30T07:43:26;100507.25;;;2.40;75.59
75045;BME280;63614;56.026;35.960;2024-01-30T07:45:52;100501.94;;;2.30;75.86
75045;BME280;63614;56.026;35.960;2024-01-30T07:48:18;100500.38;;;2.41;75.30
75045;BME280;63614;56.026;35.960;2024-01-30T07:50:43;100504.88;;;2.50;75.22
75045;BME280;63614;56.026;35.960;2024-01-30T07:53:09;100507.69;;;2.34;75.32
75045;BME280;63614;56.026;35.960;2024-01-30T07:55:52;100507.47;;;2.37;75.40
75045;BME280;63614;56.026;35.960;2024-01-30T07:58:18;100505.28;;;2.44;75.54
75045;BME280;63614;56.026;35.960;2024-01-30T08:00:45;100511.53;;;2.52;74.97
75045;BME280;63614;56.026;35.960;2024-01-30T08:03:11;100521.09;;;2.50;74.87
75045;BME280;63614;56.026;35.960;2024-01-30T08:05:38;100513.09;;;2.42;74.99
75045;BME280;63614;56.026;35.960;2024-01-30T08:08:05;100515.34;;;2.47;74.98
75045;BME280;63614;56.026;35.960;2024-01-30T08:10:31;100500.09;;;2.57;74.87
75045;BME280;63614;56.026;35.960;2024-01-30T08:12:57;100508.66;;;2.57;74.60
75045;BME280;63614;56.026;35.960;2024-01-30T08:15:23;100513.16;;;2.53;74.74
75045;BME280;63614;56.026;35.960;2024-01-30T08:17:48;100506.91;;;2.58;74.89
75045;BME280;63614;56.026;35.960;2024-01-30T08:20:14;100516.09;;;2.73;74.14
75045;BME280;63614;56.026;35.960;2024-01-30T08:22:41;100512.97;;;2.81;73.85
75045;BME280;63614;56.026;35.960;2024-01-30T08:25:07;100520.44;;;2.60;74.27
75045;BME280;63614;56.026;35.960;2024-01-30T08:27:33;100520.81;;;2.66;74.14
75045;BME280;63614;56.026;35.960;2024-01-30T08:30:02;100519.22;;;2.65;74.62
75045;BME280;63614;56.026;35.960;2024-01-30T08:32:30;100517.63;;;2.76;74.10
75045;BME280;63614;56.026;35.960;2024-01-30T08:34:56;100521.28;;;2.84;73.77
75045;BME280;63614;56.026;35.960;2024-01-30T08:37:21;100520.50;;;2.71;74.07
75045;BME280;63614;56.026;35.960;2024-01-30T08:39:47;100518.94;;;2.81;73.82
75045;BME280;63614;56.026;35.960;2024-01-30T08:42:13;100513.75;;;2.70;74.03
75045;BME280;63614;56.026;35.960;2024-01-30T08:44:39;100509.56;;;2.80;73.85
75045;BME280;63614;56.026;35.960;2024-01-30T08:47:05;100505.75;;;2.86;73.61
75045;BME280;63614;56.026;35.960;2024-01-30T08:49:31;100508.94;;;2.89;73.23
75045;BME280;63614;56.026;35.960;2024-01-30T08:51:57;100507.09;;;3.03;73.18
75045;BME280;63614;56.026;35.960;2024-01-30T08:54:23;100504.13;;;3.20;72.67
75045;BME280;63614;56.026;35.960;2024-01-30T08:56:49;100512.09;;;3.28;72.48
75045;BME280;63614;56.026;35.960;2024-01-30T08:59:15;100503.94;;;3.35;72.40
75045;BME280;63614;56.026;35.960;2024-01-30T09:01:41;100500.63;;;3.21;71.86
75045;BME280;63614;56.026;35.960;2024-01-30T09:04:07;100501.13;;;3.38;72.07
75045;BME280;63614;56.026;35.960;2024-01-30T09:06:32;100496.72;;;3.40;71.74
75045;BME280;63614;56.026;35.960;2024-01-30T09:08:58;100496.09;;;3.25;72.08
75045;BME280;63614;56.026;35.960;2024-01-30T09:11:24;100500.00;;;3.06;72.81
75045;BME280;63614;56.026;35.960;2024-01-30T09:13:50;100497.03;;;3.00;72.94
75045;BME280;63614;56.026;35.960;2024-01-30T09:16:16;100496.81;;;3.03;73.00
75045;BME280;63614;56.026;35.960;2024-01-30T09:18:42;100498.22;;;2.96;73.34
75045;BME280;63614;56.026;35.960;2024-01-30T09:21:09;100490.41;;;2.97;73.30
75045;BME280;63614;56.026;35.960;2024-01-30T09:23:35;100489.06;;;2.91;73.50
75045;BME280;63614;56.026;35.960;2024-01-30T09:26:01;100487.69;;;2.63;74.05
75045;BME280;63614;56.026;35.960;2024-01-30T09:28:27;100496.41;;;2.85;73.95
75045;BME280;63614;56.026;35.960;2024-01-30T09:30:53;100511.88;;;2.72;74.24
75045;BME280;63614;56.026;35.960;2024-01-30T09:33:19;100500.78;;;2.96;73.94
75045;BME280;63614;56.026;35.960;2024-01-30T09:35:45;100500.66;;;2.97;73.75
75045;BME280;63614;56.026;35.960;2024-01-30T09:38:11;100501.47;;;2.98;73.41
75045;BME280;63614;56.026;35.960;2024-01-30T09:40:37;100497.44;;;3.06;73.24
75045;BME280;63614;56.026;35.960;2024-01-30T09:43:03;100502.63;;;3.18;73.12
75045;BME280;63614;56.026;35.960;2024-01-30T09:45:29;100505.41;;;3.15;72.58
75045;BME280;63614;56.026;35.960;2024-01-30T09:47:59;100505.06;;;2.95;73.09
75045;BME280;63614;56.026;35.960;2024-01-30T09:50:25;100512.25;;;3.03;73.08
75045;BME280;63614;56.026;35.960;2024-01-30T09:52:53;100502.94;;;3.13;72.85
75045;BME280;63614;56.026;35.960;2024-01-30T09:55:21;100503.44;;;3.18;72.92
75045;BME280;63614;56.026;35.960;2024-01-30T09:57:47;100504.66;;;3.37;72.40
75045;BME280;63614;56.026;35.960;2024-01-30T10:00:13;100499.63;;;3.35;72.16
75045;BME280;63614;56.026;35.960;2024-01-30T10:02:40;100501.69;;;3.30;72.42
75045;BME280;63614;56.026;35.960;2024-01-30T10:05:08;100493.19;;;3.41;72.07
75045;BME280;63614;56.026;35.960;2024-01-30T10:07:34;100492.13;;;3.32;72.07
75045;BME280;63614;56.026;35.960;2024-01-30T10:10:00;100495.28;;;3.36;71.96
75045;BME280;63614;56.026;35.960;2024-01-30T10:12:26;100499.59;;;3.24;72.31
75045;BME280;63614;56.026;35.960;2024-01-30T10:14:52;100496.19;;;3.23;72.63
75045;BME280;63614;56.026;35.960;2024-01-30T10:17:19;100503.47;;;3.30;72.47
75045;BME280;63614;56.026;35.960;2024-01-30T10:19:47;100497.16;;;3.34;72.59
75045;BME280;63614;56.026;35.960;2024-01-30T10:22:13;100503.03;;;3.47;72.19
75045;BME280;63614;56.026;35.960;2024-01-30T10:24:40;100493.66;;;3.35;72.03
75045;BME280;63614;56.026;35.960;2024-01-30T10:27:06;100495.53;;;3.33;72.27
75045;BME280;63614;56.026;35.960;2024-01-30T10:29:32;100497.16;;;3.34;72.29
75045;BME280;63614;56.026;35.960;2024-01-30T10:32:03;100488.63;;;3.33;72.54
75045;BME280;63614;56.026;35.960;2024-01-30T10:34:29;100482.78;;;3.31;72.49
75045;BME280;63614;56.026;35.960;2024-01-30T10:37:09;100487.13;;;3.42;72.03
75045;BME280;63614;56.026;35.960;2024-01-30T10:39:43;100487.09;;;3.31;72.53
75045;BME280;63614;56.026;35.960;2024-01-30T10:42:17;100490.16;;;3.36;72.41
75045;BME280;63614;56.026;35.960;2024-01-30T10:47:30;100491.44;;;3.41;72.12
75045;BME280;63614;56.026;35.960;2024-01-30T10:49:56;100491.63;;;3.27;72.41
75045;BME280;63614;56.026;35.960;2024-01-30T10:52:25;100484.28;;;3.22;72.80
75045;BME280;63614;56.026;35.960;2024-01-30T10:54:53;100491.31;;;3.32;72.75
75045;BME280;63614;56.026;35.960;2024-01-30T10:57:19;100490.75;;;3.39;72.50
75045;BME280;63614;56.026;35.960;2024-01-30T10:59:47;100479.63;;;3.27;72.45
75045;BME280;63614;56.026;35.960;2024-01-30T11:02:14;100483.69;;;3.30;72.75
75045;BME280;63614;56.026;35.960;2024-01-30T11:04:43;100481.84;;;3.32;72.51
75045;BME280;63614;56.026;35.960;2024-01-30T11:07:23;100467.94;;;3.35;72.71
75045;BME280;63614;56.026;35.960;2024-01-30T11:09:50;100469.91;;;3.31;72.45
75045;BME280;63614;56.026;35.960;2024-01-30T11:12:18;100469.09;;;3.31;72.54
75045;BME280;63614;56.026;35.960;2024-01-30T11:14:47;100467.69;;;3.26;72.91
75045;BME280;63614;56.026;35.960;2024-01-30T11:17:13;100465.59;;;3.32;72.84
75045;BME280;63614;56.026;35.960;2024-01-30T11:19:41;100477.63;;;3.31;72.63
75045;BME280;63614;56.026;35.960;2024-01-30T11:22:07;100468.38;;;3.28;72.80
75045;BME280;63614;56.026;35.960;2024-01-30T11:24:40;100481.84;;;3.32;72.83
75045;BME280;63614;56.026;35.960;2024-01-30T11:27:10;100478.44;;;3.32;73.10
75045;BME280;63614;56.026;35.960;2024-01-30T11:29:36;100475.19;;;3.41;72.48
75045;BME280;63614;56.026;35.960;2024-01-30T11:32:02;100477.44;;;3.45;72.44
75045;BME280;63614;56.026;35.960;2024-01-30T11:34:28;100477.09;;;3.61;71.74
75045;BME280;63614;56.026;35.960;2024-01-30T11:37:04;100480.47;;;3.62;71.70
75045;BME280;63614;56.026;35.960;2024-01-30T11:39:35;100476.28;;;3.72;71.39
75045;BME280;63614;56.026;35.960;2024-01-30T11:42:03;100486.56;;;3.61;71.59
75045;BME280;63614;56.026;35.960;2024-01-30T11:44:31;100487.16;;;3.53;72.00
75045;BME280;63614;56.026;35.960;2024-01-30T11:46:56;100490.78;;;3.62;71.70
75045;BME280;63614;56.026;35.960;2024-01-30T11:49:23;100491.06;;;3.35;72.83
75045;BME280;63614;56.026;35.960;2024-01-30T11:51:49;100494.09;;;3.28;73.04
75045;BME280;63614;56.026;35.960;2024-01-30T11:54:18;100493.28;;;3.28;73.37
75045;BME280;63614;56.026;35.960;2024-01-30T11:56:44;100487.59;;;3.36;73.13
75045;BME280;63614;56.026;35.960;2024-01-30T11:59:10;100485.94;;;3.35;73.01
75045;BME280;63614;56.026;35.960;2024-01-30T12:01:36;100493.53;;;3.36;72.98
75045;BME280;63614;56.026;35.960;2024-01-30T12:04:02;100490.22;;;3.12;73.61
75045;BME280;63614;56.026;35.960;2024-01-30T12:06:28;100490.91;;;3.14;73.31
75045;BME280;63614;56.026;35.960;2024-01-30T12:08:59;100503.91;;;3.23;73.62
75045;BME280;63614;56.026;35.960;2024-01-30T12:11:26;100501.63;;;3.07;73.70
75045;BME280;63614;56.026;35.960;2024-01-30T12:13:52;100492.75;;;3.00;73.79
75045;BME280;63614;56.026;35.960;2024-01-30T12:16:19;100496.34;;;2.98;74.04
75045;BME280;63614;56.026;35.960;2024-01-30T12:18:45;100488.56;;;3.11;74.12
75045;BME280;63614;56.026;35.960;2024-01-30T12:21:11;100493.69;;;3.11;73.91
75045;BME280;63614;56.026;35.960;2024-01-30T12:23:37;100498.63;;;3.14;73.74
75045;BME280;63614;56.026;35.960;2024-01-30T12:26:04;100489.03;;;3.16;73.67
75045;BME280;63614;56.026;35.960;2024-01-30T12:28:33;100497.91;;;3.12;73.75
75045;BME280;63614;56.026;35.960;2024-01-30T12:31:05;100500.97;;;3.17;73.62
75045;BME280;63614;56.026;35.960;2024-01-30T12:33:31;100496.81;;;3.03;73.99
75045;BME280;63614;56.026;35.960;2024-01-30T12:36:01;100492.19;;;3.08;74.38
75045;BME280;63614;56.026;35.960;2024-01-30T12:38:27;100501.53;;;2.85;74.53
75045;BME280;63614;56.026;35.960;2024-01-30T12:40:56;100494.31;;;2.90;74.86
75045;BME280;63614;56.026;35.960;2024-01-30T12:43:26;100490.94;;;2.89;74.66
75045;BME280;63614;56.026;35.960;2024-01-30T12:45:52;100501.84;;;3.04;74.65
75045;BME280;63614;56.026;35.960;2024-01-30T12:48:18;100496.06;;;3.14;74.04
75045;BME280;63614;56.026;35.960;2024-01-30T12:50:44;100497.91;;;3.12;74.27